Tiempo atmosférico en la estación meteorológica de Huelva, Ronda Este, Huelva (19 m.)



Fecha
DESCASC
Temp. máxima en grados centígrados (hora)
DESCASC
Temp. mínima en grados centígrados (hora)
DESCASC
Temp. media en grados centígrados
DESCASC
Racha de viento máxima en m/sg (hora)
DESCASC
Velocidad máxima media en intervalos de 10 minutos(hora)
DESCASC
Precipitaciones diarias en mm
DESCASC
Precipitaciones de 00:00 a 06:00 en mm
DESCASC
Precipitaciones de 06:00 a 12:00 en mm
DESCASC
Precipitaciones de 12:00 a 18:00 en mm
DESCASC
Precipitaciones de 18:00 a 24:00 en mm
DESCASC
27-01-2020 15.7 (14:30) 6.9 (08:40) 11.3 5.28 (16:40) 4.17 (16:40) 0 0 0 0 0
26-01-2020 16.3 (15:40) 5.7 (08:30) 11 5.56 (17:00) 4.17 (17:30) 0.2 0 0.2 0 0
25-01-2020 15.3 (15:40) 9.5 (00:00) 12.4 6.39 (19:20) 4.72 (19:20) 3 0.2 2.8 0 0
24-01-2020 13.9 (13:10) 10.1 (00:00) 12 12.5 (15:30) 8.61 (15:30) 27.4 11.8 2.4 7.6 5.6
23-01-2020 12.4 (15:00) 9.6 (00:00) 11 7.78 (14:50) 5.28 (14:50) 13.8 1.6 9.6 2 0.6
22-01-2020 10.2 (18:40) 8.4 (00:00) 9.3 9.17 (22:00) 5.56 (22:10) 17.6 0 0.4 16.6 0.6
21-01-2020 15.2 (14:50) 6.4 (00:00) 10.8 7.78 (17:10) 5.28 (09:30) 0 0 0 0 0
20-01-2020 13.1 (15:10) 6.3 (00:00) 9.7 13.33 (13:00) 7.78 (15:10) 0 0 0 0 0
19-01-2020 16.9 (17:10) 8.8 (00:00) 12.8 13.61 (15:00) 6.94 (15:00) 0 0 0 0 0
18-01-2020 17.4 (17:20) 9.5 (00:00) 13.4 11.11 (14:50) 8.61 (15:40) 5 0 2 3 0
17-01-2020 18.9 (16:20) 10.6 (00:00) 14.8 4.44 (12:10) 2.78 (01:00) 0.4 0.4 0 0 0
16-01-2020 18.9 (14:20) 8.8 (00:00) 13.8 6.67 (17:20) 4.72 (16:00) 0 0 0 0 0
15-01-2020 18.7 (15:00) 7.3 (00:00) 13 9.72 (15:00) 6.39 (13:40) 0 0 0 0 0
14-01-2020 16.1 (15:40) 3 (00:00) 9.6 6.67 (14:20) 5 (15:30) 0 0 0 0 0
13-01-2020 16.7 (15:10) 2.3 (00:00) 9.5 5.83 (16:20) 3.61 (15:20) 0 0 0 0 0
12-01-2020 18.5 (17:40) 3.4 (00:00) 11 4.17 (12:20) 2.5 (11:30) 0 0 0 0 0
11-01-2020 17.3 (15:40) 4 (00:00) 10.6 6.94 (12:40) 4.72 (12:30) 0 0 0 0 0
10-01-2020 16.3 (16:10) 7 (00:00) 11.6 9.72 (12:20) 5.28 (12:30) 0 0 0 0 0
09-01-2020 16.8 (17:20) 3.4 (00:00) 10.1 6.39 (22:40) 3.89 (22:40) 0 0 0 0 0
08-01-2020 20 (17:10) 3.8 (00:00) 11.9 4.44 (12:50) 2.78 (19:20) 0 0 0 0 0
07-01-2020 18.7 (16:50) 4.3 (00:00) 11.5 5.56 (13:40) 2.78 (13:40) 0 0 0 0 0
06-01-2020 18.1 (16:20) 4.4 (00:00) 11.3 4.72 (12:50) 3.06 (16:20) 0 0 0 0 0
05-01-2020 17 (16:00) 8.6 (00:00) 12.8 8.33 (15:20) 5 (15:20) 0 0 0 0 0
04-01-2020 15.8 (15:40) 4.5 (00:00) 10.2 5.83 (12:40) 3.61 (12:40) 0 0 0 0 0
03-01-2020 16.1 (14:30) 8.7 (00:00) 12.4 6.67 (17:40) 3.61 (17:00) 0 0 0 0 0
02-01-2020 17.2 (14:50) 5.2 (00:00) 11.2 3.89 (14:30) 2.78 (09:20) 0 0 0 0 0
01-01-2020 18.4 (17:20) 4.9 (00:00) 11.6 3.61 (11:50) 2.78 (23:59) 0 0 0 0 0
31-12-2019 17.9 (16:20) 5.3 (00:00) 11.6 5.83 (13:30) 3.33 (13:00) 0 0 0 0 0
30-12-2019 18.3 (16:30) 4.5 (00:00) 11.4 6.11 (12:00) 3.33 (11:50) 0 0 0 0 0

Gráficas

Temp. máximas Temp. mínimas Temp. medias Precipitaciones Rachas de viento máximas Velocidades máximas media en intervalos de 10 minutos

Datos horarios

Fecha y hora oficial Temperatura (ºC) Velocidad del viento (km/h) Dirección del viento Racha (km/h) Dirección de racha Precipitación (mm) Presión (hPa) Tendencia (hPa) Humedad (%)
2020-01-28 23:00:00 12.4 3 Sudeste 5 Sudoeste 0 1023.8 -0.2 96
2020-01-28 22:00:00 13.2 2 Nordeste 5 Norte 0 1024.3 0.7 94
2020-01-28 21:00:00 14.1 2 Sudeste 5 Sur 0 1024.2 0.8 92
2020-01-28 20:00:00 14.4 3 Sur 7 Sur 0 1024 0.6 90
2020-01-28 19:00:00 15 6 Sudoeste 9 Sur 0 1023.6 0.3 89
2020-01-28 18:00:00 15.5 6 Sur 10 Oeste 0 1023.4 -0.4 87
2020-01-28 17:00:00 15.9 8 Sudoeste 15 Sudoeste 0 1023.4 -0.8 82
2020-01-28 16:00:00 16.4 10 Sudoeste 15 Sudoeste 0 1023.3 -1.9 77
2020-01-28 15:00:00 16.9 2 Sudeste 10 Sudoeste 0 1023.8 -1.9 76
2020-01-28 14:00:00 17.7 4 Sur 14 Sur 0 1024.2 -1.3 74
2020-01-28 13:00:00 16.2 4 Sur 10 Este 0 1025.2 0.4 85
2020-01-28 12:00:00 13.3 5 Nordeste 9 Este 0 1025.7 1.4 95
2020-01-28 11:00:00 11.8 4 Nordeste 8 Nordeste 0 1025.5 1.3 99
2020-01-28 10:00:00 10.4 7 Nordeste 9 Nordeste 0 1024.8 1.2 99
2020-01-28 09:00:00 9.4 4 Nordeste 11 Nordeste 0 1024.3 1 99
2020-01-28 08:00:00 9.6 6 Nordeste 9 Nordeste 0 1024.2 0.7 99
2020-01-28 07:00:00 9.5 7 Nordeste 12 Nordeste 0 1023.6 -0.4 100
2020-01-28 06:00:00 9.2 8 Nordeste 12 Nordeste 0 1023.3 -0.6 100
2020-01-28 05:00:00 8.8 9 Nordeste 12 Nordeste 0 1023.5 -0.9 100
2020-01-28 04:00:00 8 9 Nordeste 10 Nordeste 0 1024 -0.8 99
2020-01-28 03:00:00 8.9 4 Nordeste 7 Este 0 1023.9 -0.8 98
2020-01-28 02:00:00 8.9 0 Calma 6 Nordeste 0 1024.4 -0.2 97
2020-01-28 01:00:00 10 4 Nordeste 7 Nordeste 0 1024.8 0.5 98
2020-01-28 00:00:00 10.3 2 Noroeste 9 Nordeste 0 1024.7 0.7 97
2020-01-27 23:00:00 11.6 6 Norte 16 Oeste 0 1024.6 0.7 92
2020-01-27 22:00:00 12.6 10 Oeste 14 Oeste 0 1024.3 0.8 94
2020-01-27 21:00:00 12.2 5 Sudoeste 9 Sur 0 1024 1 95
2020-01-27 20:00:00 12.4 4 Sur 8 Sudeste 0 1023.9 0.8 92
2020-01-27 19:00:00 13.5 6 Sur 13 Sur 0 1023.5 0.3 89
2020-01-27 18:00:00 15.3 9 Sur 15 Sur 0 1023 -0.6 82
2020-01-27 17:00:00 15.2 12 Sur 19 Sur 0 1023.1 -1.2 82
2020-01-27 16:00:00 15.5 12 Sur 18 Sudoeste 0 1023.2 -2 81
2020-01-27 15:00:00 15.5 11 Sur 18 Sur 0 1023.6 -2 78
2020-01-27 14:00:00 15.3 8 Sudeste 14 Sudeste 0 1024.3 -1.2 80
2020-01-27 13:00:00 14.1 6 Este 14 Nordeste 0 1025.2 0 85
2020-01-27 12:00:00 12.6 8 Este 14 Este 0 1025.6 0.8 87
2020-01-27 11:00:00 11.1 8 Este 14 Este 0 1025.5 1.2 93
2020-01-27 10:00:00 8.6 9 Nordeste 14 Nordeste 0 1025.2 1.3 98
2020-01-27 09:00:00 7 7 Nordeste 14 Nordeste 0 1024.8 0.9 99
2020-01-27 08:00:00 7.4 5 Nordeste 12 Nordeste 0 1024.3 0.6 99
2020-01-27 07:00:00 7.8 8 Nordeste 10 Nordeste 0 1023.9 -0.1 99
2020-01-27 06:00:00 7.9 5 Nordeste 9 Nordeste 0 1023.9 -0.3 99
2020-01-27 05:00:00 8.4 6 Nordeste 11 Nordeste 0 1023.7 -0.7 98
2020-01-27 04:00:00 8.6 8 Nordeste 10 Nordeste 0 1024 -0.6 98
2020-01-27 03:00:00 9.5 5 Nordeste 7 Nordeste 0 1024.2 -0.6 97
2020-01-27 02:00:00 10 5 Nordeste 8 Nordeste 0 1024.4 -0.5 96
2020-01-27 01:00:00 10.9 5 Nordeste 7 Nordeste 0 1024.6 -0.2 95
2020-01-27 00:00:00 12.2 0 Calma 3 Este 0 1024.8 0.4 92
2020-01-26 23:00:00 12.5 2 Sur 4 Sudoeste 0 1024.9 0.9 91
2020-01-26 22:00:00 12.3 3 Sudoeste 4 Sudoeste 0 1024.8 1.1 90
2020-01-26 21:00:00 12.4 0 Calma 3 Sur 0 1024.4 1 90
2020-01-26 20:00:00 12.7 3 Sudeste 8 Sur 0 1024 0.9 89
2020-01-26 19:00:00 13.7 6 Sur 19 Sudoeste 0 1023.7 0.8 83
2020-01-26 18:00:00 15.3 13 Sudoeste 20 Sudoeste 0 1023.4 0.1 70
2020-01-26 17:00:00 16 15 Sudoeste 20 Sudoeste 0 1023.1 -1 68
2020-01-26 16:00:00 15.5 8 Sur 15 Sur 0 1022.9 -2.1 72
2020-01-26 15:00:00 16.1 7 Sur 15 Sur 0 1023.3 -1.8 76
2020-01-26 14:00:00 14.3 4 Oeste 9 Oeste 0 1024.1 -0.5 86
2020-01-26 13:00:00 11.4 3 Noroeste 13 Oeste 0 1025 1.4 96
2020-01-26 12:00:00 8.9 6 Noroeste 16 Noroeste 0 1025.1 2.2 100
2020-01-26 11:00:00 7.4 4 Noroeste 14 Norte 0 1024.6 2.5 100
2020-01-26 10:00:00 6.2 8 Norte 12 Norte 0 1023.6 2.4 100
2020-01-26 09:00:00 5.8 4 Nordeste 17 Nordeste 0 1022.9 2.2 100
2020-01-26 08:00:00 6.2 8 Norte 15 Norte 0.2 1022.1 1.7 98
2020-01-26 07:00:00 6.4 4 Norte 10 Oeste 0 1021.2 1 98
2020-01-26 06:00:00 7.6 5 Noroeste 10 Noroeste 0 1020.7 0.9 98
2020-01-26 05:00:00 8.5 4 Noroeste 12 Oeste 0 1020.4 0.7 97
2020-01-26 04:00:00 8.8 4 Norte 9 Noroeste 0 1020.2 0.8 97
2020-01-26 03:00:00 9.1 4 Noroeste 17 Oeste 0 1019.8 1 95
2020-01-26 02:00:00 8.8 8 Noroeste 16 Noroeste 0 1019.7 1.5 97
2020-01-26 01:00:00 9.1 13 Noroeste 18 Noroeste 0 1019.4 1.8 97
2020-01-26 00:00:00 9.5 10 Noroeste 12 Noroeste 0 1018.8 1.9 97
2020-01-25 23:00:00 10.2 7 Noroeste 9 Noroeste 0 1018.2 1.9 96
2020-01-25 22:00:00 11 5 Noroeste 8 Noroeste 0 1017.6 2.3 96
2020-01-25 21:00:00 11.6 5 Oeste 10 Norte 0 1016.9 2.7 94
2020-01-25 20:00:00 12.1 4 Noroeste 23 Oeste 0 1016.3 2.6 93
2020-01-25 19:00:00 12.5 13 Oeste 22 Oeste 0 1015.3 1.9 88
2020-01-25 18:00:00 14.5 7 Oeste 10 Noroeste 0 1014.2 0.7 79
2020-01-25 17:00:00 14.7 5 Noroeste 11 Noroeste 0 1013.7 0 74
2020-01-25 16:00:00 15 4 Oeste 9 Sudoeste 0 1013.4 -0.9 76
2020-01-25 15:00:00 14.1 5 Nordeste 14 Este 0 1013.5 -0.9 76
2020-01-25 14:00:00 13.3 8 Este 15 Este 0 1013.7 -0.2 86
2020-01-25 13:00:00 12.4 8 Este 14 Este 0 1014.3 0.8 94
2020-01-25 12:00:00 12 8 Este 15 Este 0 1014.4 1.3 97
2020-01-25 11:00:00 11.6 6 Este 11 Este 0 1013.9 1.2 99
2020-01-25 10:00:00 10.7 5 Nordeste 10 Nordeste 0 1013.5 1.2 100
2020-01-25 09:00:00 10.3 5 Nordeste 15 Este 0.4 1013.1 1 99
2020-01-25 08:00:00 10.3 7 Nordeste 13 Este 2 1012.7 0.4 99
2020-01-25 07:00:00 10.2 6 Nordeste 13 Nordeste 0.4 1012.3 -0.4 98
2020-01-25 06:00:00 10.2 8 Nordeste 14 Este 0.2 1012.1 -0.8 97
2020-01-25 05:00:00 10 6 Nordeste 12 Sudeste 0 1012.3 -1 96
2020-01-25 04:00:00 9.6 6 Este 14 Este 0 1012.7 -1 97
2020-01-25 03:00:00 9.7 6 Nordeste 14 Sudeste 0 1012.9 -1.3 96
2020-01-25 02:00:00 10.4 8 Este 14 Sudeste 0 1013.3 -0.5 94
2020-01-25 01:00:00 10.6 6 Sudeste 10 Sudeste 0 1013.7 -0.2 95
2020-01-25 00:00:00 10.8 7 Sur 19 Sur 0.4 1014.2 0.6 92
2020-01-24 23:00:00 10.7 5 Sudeste 10 Sudeste 0.6 1013.8 0.8 98
2020-01-24 22:00:00 10.7 4 Sur 9 Sur 0 1013.9 1.4 97
2020-01-24 21:00:00 11.6 6 Sur 11 Sudoeste 0 1013.6 1.3 97
2020-01-24 20:00:00 11.6 5 Sudeste 12 Sur 0.8 1013 0.3 97
2020-01-24 19:00:00 11.8 12 Sur 29 Este 3.8 1012.5 -0.6 96
2020-01-24 18:00:00 11.9 21 Sudeste 34 Este 3.2 1012.3 -1.5 95
2020-01-24 17:00:00 12.3 17 Sudeste 30 Sudeste 0.8 1012.7 -1.9 94
2020-01-24 16:00:00 11.9 20 Sudeste 45 Sudeste 3.2 1013.1 -2.5 94
2020-01-24 15:00:00 13.2 19 Sudeste 37 Sudeste 0.2 1013.8 -2.4 91
2020-01-24 14:00:00 13.8 23 Sudeste 36 Sudeste 0 1014.6 -1.8 86
2020-01-24 13:00:00 13.8 23 Sudeste 34 Sudeste 0.2 1015.6 -0.4 88
2020-01-24 12:00:00 12.9 13 Sudeste 24 Sudeste 0 1016.2 0.4 94
2020-01-24 11:00:00 11.7 12 Este 21 Este 1.8 1016.4 1.1 97
2020-01-24 10:00:00 11.2 12 Este 21 Este 0 1016 0.7 98
2020-01-24 09:00:00 10.8 10 Este 18 Este 0.6 1015.8 0.5 98
2020-01-24 08:00:00 10.8 8 Nordeste 14 Este 0 1015.3 -0.3 99
2020-01-24 07:00:00 10.6 6 Nordeste 15 Este 0 1015.3 -0.2 99
2020-01-24 06:00:00 10.6 9 Este 14 Este 1.4 1015.3 -0.2 99
2020-01-24 05:00:00 10.6 5 Nordeste 12 Nordeste 2.2 1015.6 -0.1 99
2020-01-24 04:00:00 10.6 7 Nordeste 14 Este 7.2 1015.5 -0.3 98
2020-01-24 03:00:00 10.4 8 Nordeste 14 Este 0.4 1015.5 0 98
2020-01-24 02:00:00 10.1 6 Nordeste 13 Sudeste 0 1015.7 0.6 98
2020-01-24 01:00:00 10.7 8 Este 15 Este 0.6 1015.8 0.9 98
2020-01-24 00:00:00 11.1 7 Este 13 Este 0.6 1015.5 1.4 97
2020-01-23 23:00:00 11.4 6 Este 12 Este 0 1015.1 1.5 98
2020-01-23 22:00:00 11 6 Nordeste 12 Este 0 1014.9 1.8 97
2020-01-23 21:00:00 11.2 9 Este 13 Este 0 1014.1 1.4 96
2020-01-23 20:00:00 11.4 8 Este 13 Este 0 1013.6 1.2 96
2020-01-23 19:00:00 11.9 9 Sudeste 17 Sudeste 0 1013.1 0.9 93
2020-01-23 18:00:00 12.1 8 Este 15 Este 0 1012.7 0.3 95
2020-01-23 17:00:00 12.4 9 Este 18 Sudeste 0 1012.4 -0.3 92
2020-01-23 16:00:00 12.2 16 Sudeste 26 Sudeste 0 1012.2 -1.2 90
2020-01-23 15:00:00 12.3 18 Sudeste 28 Sudeste 0 1012.4 -1.1 92
2020-01-23 14:00:00 11.7 9 Este 22 Sudeste 0 1012.7 -0.3 93
2020-01-23 13:00:00 10.8 18 Sudeste 26 Sudeste 2 1013.4 0.7 95
2020-01-23 12:00:00 10.9 11 Este 20 Este 0.4 1013.5 1.5 94
2020-01-23 11:00:00 10.7 8 Este 19 Este 0.6 1013 1.4 96
2020-01-23 10:00:00 10.3 5 Este 16 Este 0.4 1012.7 1.2 95
2020-01-23 09:00:00 9.9 6 Nordeste 17 Este 0 1012 0.6 97
2020-01-23 08:00:00 10.1 9 Nordeste 15 Este 5.4 1011.6 -0.2 97
2020-01-23 07:00:00 10.3 9 Este 25 Este 2.8 1011.5 -0.6 97
2020-01-23 06:00:00 9.9 9 Este 14 Este 0.6 1011.4 -0.8 97
2020-01-23 05:00:00 9.9 9 Este 27 Sudeste 0.4 1011.8 -0.6 96
2020-01-23 04:00:00 10 11 Sudeste 17 Este 0 1012.1 -0.2 96
2020-01-23 03:00:00 9.6 9 Este 19 Este 0 1012.2 -0.3 96
2020-01-23 02:00:00 9.8 13 Sudeste 26 Sudeste 0.6 1012.4 0.2 96
2020-01-23 01:00:00 10 11 Sudeste 22 Sudeste 0 1012.3 0.3 95
2020-01-23 00:00:00 10.1 14 Sudeste 26 Sudeste 0 1012.5 0.5 95
2020-01-22 23:00:00 9.8 15 Sudeste 33 Sudeste 0.2 1012.2 0.5 95
2020-01-22 22:00:00 10.1 19 Sudeste 33 Sudeste 0 1012 0.7 94
2020-01-22 21:00:00 10.1 12 Este 21 Este 0.2 1012 0.9 95
2020-01-22 20:00:00 9.9 13 Este 22 Sudeste 0.2 1011.7 0.6 94
2020-01-22 19:00:00 10.1 9 Este 18 Este 0 1011.3 0 95
2020-01-22 18:00:00 9.9 10 Este 24 Nordeste 0 1011.1 -0.8 97
2020-01-22 17:00:00 9.6 13 Nordeste 23 Nordeste 5.2 1011.1 -1.5 97
2020-01-22 16:00:00 9.4 12 Nordeste 21 Nordeste 3.6 1011.3 -2 97
2020-01-22 15:00:00 9.2 9 Nordeste 15 Nordeste 2.8 1011.9 -1.4 97
2020-01-22 14:00:00 9.2 9 Este 15 Este 4.2 1012.6 -0.5 96
2020-01-22 13:00:00 9.5 8 Este 14 Este 0.8 1013.3 0.7 95
2020-01-22 12:00:00 9.1 9 Este 14 Este 0.2 1013.3 1 96
2020-01-22 11:00:00 8.8 7 Este 10 Este 0 1013.1 1.3 95
2020-01-22 10:00:00 8.4 6 Este 9 Este 0.2 1012.6 1.2 95
2020-01-22 09:00:00 8.4 4 Este 8 Este 0 1012.3 1.1 94
2020-01-22 08:00:00 8.5 5 Este 10 Este 0 1011.8 0.4 93
2020-01-22 07:00:00 8.5 6 Nordeste 14 Este 0 1011.4 0 92
2020-01-22 06:00:00 8.8 6 Este 13 Este 0 1011.2 -0.2 85
2020-01-22 05:00:00 9 6 Nordeste 11 Nordeste 0 1011.4 -0.4 80
2020-01-22 04:00:00 9.5 8 Norte 15 Nordeste 0 1011.4 -0.5 74
2020-01-22 03:00:00 9.4 8 Norte 17 Norte 0 1011.4 -0.5 74
2020-01-22 02:00:00 9.5 8 Norte 13 Norte 0 1011.8 0.1 75
2020-01-22 01:00:00 9.7 6 Norte 11 Norte 0 1011.9 0.4 71
2020-01-22 00:00:00 10.1 5 Norte 11 Nordeste 0 1011.9 0.2 67
2020-01-21 23:00:00 10.1 5 Norte 8 Norte 0 1011.7 0.4 66
2020-01-21 22:00:00 10 3 Norte 6 Norte 0 1011.5 0.7 66
2020-01-21 21:00:00 10.6 3 Norte 5 Norte 0 1011.7 1.5 66
2020-01-21 20:00:00 11.2 4 Norte 10 Norte 0 1011.3 1.3 61
2020-01-21 19:00:00 11.6 3 Nordeste 16 Nordeste 0 1010.8 0.8 60
2020-01-21 18:00:00 12.7 8 Nordeste 28 Nordeste 0 1010.2 -0.2 54
2020-01-21 17:00:00 13.8 14 Nordeste 24 Nordeste 0 1010 -1.2 49
2020-01-21 16:00:00 14.7 6 Nordeste 14 Sudeste 0 1010 -2.1 46
2020-01-21 15:00:00 15.1 7 Noroeste 16 Nordeste 0 1010.4 -2.4 45
2020-01-21 14:00:00 14.3 8 Norte 19 Norte 0 1011.2 -1.9 48
2020-01-21 13:00:00 13.2 10 Norte 20 Norte 0 1012.1 -1 51
2020-01-21 12:00:00 11.9 12 Norte 20 Norte 0 1012.8 -0.1 56
2020-01-21 11:00:00 10.1 10 Norte 23 Noroeste 0 1013.1 0.3 61
2020-01-21 10:00:00 7.5 16 Norte 27 Norte 0 1013.1 0.7 70
2020-01-21 09:00:00 6.4 10 Noroeste 27 Norte 0 1012.9 0.3 74
2020-01-21 08:00:00 7.4 13 Norte 26 Norte 0 1012.8 0 69
2020-01-21 07:00:00 7.9 14 Noroeste 21 Noroeste 0 1012.4 -0.7 67
2020-01-21 06:00:00 7.5 9 Norte 21 Norte 0 1012.6 -0.8 70
2020-01-21 05:00:00 7.3 12 Norte 21 Norte 0 1012.8 -0.7 72
2020-01-21 04:00:00 8 12 Norte 22 Norte 0 1013.1 -0.8 70
2020-01-21 03:00:00 8.5 9 Norte 15 Noroeste 0 1013.4 -0.4 68
2020-01-21 02:00:00 8.9 10 Norte 17 Norte 0 1013.5 -0.2 66
2020-01-21 01:00:00 8.3 8 Norte 17 Nordeste 0 1013.9 0.2 69
2020-01-21 00:00:00 8.6 12 Nordeste 19 Nordeste 0 1013.8 0.4 66
2020-01-20 23:00:00 7.8 11 Nordeste 18 Nordeste 0 1013.7 0.7 67
2020-01-20 22:00:00 7.5 7 Nordeste 17 Nordeste 0 1013.7 1.1 66
2020-01-20 21:00:00 8.2 10 Nordeste 18 Nordeste 0 1013.4 1.2 61
2020-01-20 20:00:00 8.5 8 Nordeste 15 Nordeste 0 1013 0.8 59
2020-01-20 19:00:00 9.8 8 Nordeste 27 Nordeste 0 1012.6 0.7 55
2020-01-20 18:00:00 11.4 21 Nordeste 36 Nordeste 0 1012.2 -0.1 47
2020-01-20 17:00:00 12.1 19 Nordeste 44 Nordeste 0 1012.2 -0.7 45
2020-01-20 16:00:00 12.1 22 Este 46 Nordeste 0 1011.9 -2.1 43
2020-01-20 15:00:00 13 22 Nordeste 45 Este 0 1012.3 -2.2 40
2020-01-20 14:00:00 11.9 27 Nordeste 46 Este 0 1012.9 -1.9 40
2020-01-20 13:00:00 11.7 27 Nordeste 48 Nordeste 0 1014 -1 40
2020-01-20 12:00:00 11.1 23 Nordeste 44 Nordeste 0 1014.5 -0.4 42
2020-01-20 11:00:00 10.5 23 Nordeste 44 Nordeste 0 1014.8 0 42
2020-01-20 10:00:00 9.1 17 Nordeste 27 Nordeste 0 1015 0.4 46
2020-01-20 09:00:00 6.7 8 Norte 21 Nordeste 0 1014.9 -0.2 53
2020-01-20 08:00:00 7.2 7 Nordeste 25 Nordeste 0 1014.8 -0.5 51
2020-01-20 07:00:00 7.4 13 Nordeste 23 Nordeste 0 1014.6 -1.3 51
2020-01-20 06:00:00 7.6 9 Nordeste 27 Nordeste 0 1015.1 -1.1 50
2020-01-20 05:00:00 8.3 18 Nordeste 30 Nordeste 0 1015.3 -1.4 47
2020-01-20 04:00:00 8.6 19 Nordeste 30 Nordeste 0 1015.9 -1.4 42
2020-01-20 03:00:00 9.2 16 Nordeste 27 Nordeste 0 1016.2 -1.2 41
2020-01-20 02:00:00 9.2 16 Nordeste 31 Nordeste 0 1016.7 -0.5 48
2020-01-20 01:00:00 10.7 17 Nordeste 27 Norte 0 1017.3 0.5 50
2020-01-20 00:00:00 10.7 9 Norte 17 Nordeste 0 1017.4 0.6 57
2020-01-19 23:00:00 10.8 8 Nordeste 30 Noroeste 0 1017.2 0.4 58
2020-01-19 22:00:00 11.2 17 Norte 29 Norte 0 1016.8 0.3 55
2020-01-19 21:00:00 13 10 Norte 18 Norte 0 1016.8 0.5 48
2020-01-19 20:00:00 12.8 11 Norte 26 Norte 0 1016.8 0.5 53
2020-01-19 19:00:00 13.7 13 Norte 36 Nordeste 0 1016.5 0 54
2020-01-19 18:00:00 16.3 15 Nordeste 34 Norte 0 1016.3 -0.8 45
2020-01-19 17:00:00 16.8 18 Norte 37 Norte 0 1016.3 -1.5 46
2020-01-19 16:00:00 16.3 23 Norte 41 Norte 0 1016.5 -2.8 51
2020-01-19 15:00:00 16.2 25 Norte 49 Noroeste 0 1017.1 -3.3 51
2020-01-19 14:00:00 15.5 17 Norte 40 Norte 0 1017.8 -2.9 57
2020-01-19 13:00:00 14.5 15 Norte 39 Noroeste 0 1019.3 -1.1 64
2020-01-19 12:00:00 13.7 10 Norte 37 Norte 0 1020.4 0 71
2020-01-19 11:00:00 12.7 15 Norte 31 Nordeste 0 1020.7 0.3 77
2020-01-19 10:00:00 11.5 8 Noroeste 26 Oeste 0 1020.4 -0.2 84
2020-01-19 09:00:00 9.7 12 Noroeste 24 Oeste 0 1020.4 -0.6 89
2020-01-19 08:00:00 9.9 9 Noroeste 18 Noroeste 0 1020.4 -0.9 86
2020-01-19 07:00:00 8.9 9 Noroeste 14 Noroeste 0 1020.6 -1.2 90
2020-01-19 06:00:00 9.6 8 Noroeste 15 Oeste 0 1021 -1.2 90
2020-01-19 05:00:00 10 11 Oeste 19 Noroeste 0 1021.3 -1 90
2020-01-19 04:00:00 10.7 11 Oeste 24 Oeste 0 1021.8 -1.5 90
2020-01-19 03:00:00 11.3 15 Noroeste 26 Oeste 0 1022.2 -1.5 92
2020-01-19 02:00:00 11.8 14 Oeste 22 Oeste 0 1022.3 -1.8 90
2020-01-19 01:00:00 12.3 7 Oeste 29 Noroeste 0 1023.3 0 86
2020-01-19 00:00:00 13.5 23 Noroeste 38 Noroeste 0 1023.7 -0.1 81
2020-01-18 23:00:00 14 17 Noroeste 32 Noroeste 0 1024.1 -0.2 90
2020-01-18 22:00:00 15.1 8 Noroeste 15 Oeste 0 1023.3 -0.8 97
2020-01-18 21:00:00 15.5 10 Oeste 20 Noroeste 0 1023.8 -0.3 95
2020-01-18 20:00:00 16.4 13 Oeste 20 Oeste 0 1024.3 -0.3 94
2020-01-18 19:00:00 16.6 11 Oeste 22 Sudoeste 0 1024.1 -0.6 94
2020-01-18 18:00:00 16.9 17 Sudoeste 25 Sudoeste 0 1024.1 -1 94
2020-01-18 17:00:00 17.1 21 Sudoeste 31 Oeste 0 1024.6 -1.6 94
2020-01-18 16:00:00 16.8 27 Sudoeste 40 Sudoeste 0 1024.7 -2.6 95
2020-01-18 15:00:00 16.7 23 Sudoeste 40 Oeste 0 1025.1 -3.2 96
2020-01-18 14:00:00 16.3 21 Sudoeste 34 Sudoeste 0.2 1026.2 -2.3 96
2020-01-18 13:00:00 16.4 18 Sudoeste 31 Sudoeste 2.8 1027.3 -1.2 96
2020-01-18 12:00:00 15.6 12 Sudoeste 19 Sur 0.2 1028.3 -0.1 99
2020-01-18 11:00:00 12.9 7 Sur 10 Sur 0.2 1028.5 0.4 99
2020-01-18 10:00:00 11.6 6 Este 8 Este 1.2 1028.5 0.1 98
2020-01-18 09:00:00 11.1 4 Sudeste 6 Sudeste 0.2 1028.4 0.3 96
2020-01-18 08:00:00 10.4 3 Este 8 Este 0.2 1028.1 -0.1 94
2020-01-18 07:00:00 10.5 4 Nordeste 6 Nordeste 0 1028.4 -0.3 93
2020-01-18 06:00:00 10.2 2 Nordeste 10 Nordeste 0 1028.1 -1 94
2020-01-18 05:00:00 9.7 6 Nordeste 9 Nordeste 0 1028.2 -1.2 94
2020-01-18 04:00:00 10 3 Nordeste 8 Nordeste 0 1028.7 -1.5 94
2020-01-18 03:00:00 10 6 Nordeste 11 Nordeste 0 1029.1 -1 95
2020-01-18 02:00:00 9.8 6 Nordeste 8 Nordeste 0 1029.4 -0.8 96
2020-01-18 01:00:00 10 6 Nordeste 10 Nordeste 0 1030.2 0.1 95
2020-01-18 00:00:00 10.6 9 Nordeste 11 Nordeste 0 1030.1 0 95
2020-01-17 23:00:00 11.4 5 Norte 8 Norte 0 1030.2 0.4 95
2020-01-17 22:00:00 12.6 5 Nordeste 7 Nordeste 0 1030.1 0.9 92
2020-01-17 21:00:00 13 2 Este 4 Este 0 1030.1 1.2 87
2020-01-17 20:00:00 14.2 0 Calma 5 Nordeste 0 1029.8 1 85
2020-01-17 19:00:00 15.5 0 Calma 4 Este 0 1029.2 0.4 77
2020-01-17 18:00:00 17.7 3 Este 10 Sur 0 1028.9 -0.2 71
2020-01-17 17:00:00 18.4 8 Sur 14 Sur 0 1028.8 -0.9 67
2020-01-17 16:00:00 18.7 6 Sur 13 Este 0 1028.8 -1.8 67
2020-01-17 15:00:00 16.6 6 Este 13 Nordeste 0 1029.1 -2.2 79
2020-01-17 14:00:00 15.7 7 Nordeste 14 Este 0 1029.7 -1.1 88
2020-01-17 13:00:00 14.2 7 Nordeste 16 Nordeste 0 1030.6 0.7 93
2020-01-17 12:00:00 13.5 8 Nordeste 14 Norte 0 1031.3 1.6 98
2020-01-17 11:00:00 13.4 6 Nordeste 13 Nordeste 0 1030.8 2.2 99
2020-01-17 10:00:00 13.2 8 Nordeste 12 Nordeste 0 1029.9 1.8 98
2020-01-17 09:00:00 13.1 5 Este 11 Norte 0 1029.7 2.3 97
2020-01-17 08:00:00 13.3 7 Nordeste 13 Nordeste 0 1028.6 1.4 97
2020-01-17 07:00:00 13.5 7 Nordeste 9 Nordeste 0 1028.1 0.9 97
2020-01-17 06:00:00 13.8 5 Nordeste 7 Este 0 1027.4 0.3 95
2020-01-17 05:00:00 14.7 4 Sudoeste 5 Sudoeste 0.4 1027.2 0.3 93
2020-01-17 04:00:00 14.7 2 Sudoeste 9 Sudoeste 0 1027.2 0.2 91
2020-01-17 03:00:00 15 6 Sudoeste 12 Sur 0 1027.1 -0.1 89
2020-01-17 02:00:00 15.3 8 Sur 15 Sudoeste 0 1026.9 0.1 84
2020-01-17 01:00:00 15.2 10 Sur 15 Sur 0 1027 0.6 84
2020-01-17 00:00:00 15.1 10 Sur 17 Sur 0 1027.2 1 85
2020-01-16 23:00:00 14.8 8 Sur 19 Sudoeste 0 1026.8 0.8 86
2020-01-16 22:00:00 14.3 9 Sudoeste 15 Sudoeste 0 1026.4 1 90
2020-01-16 21:00:00 13.9 8 Sudoeste 13 Sur 0 1026.2 1.1 90
2020-01-16 20:00:00 13.9 9 Sur 15 Sur 0 1026 1.2 88
2020-01-16 19:00:00 14.1 5 Sur 15 Sur 0 1025.4 0.6 86
2020-01-16 18:00:00 15.8 10 Sur 24 Sudoeste 0 1025.1 0.2 81
2020-01-16 17:00:00 17.4 15 Sur 24 Sur 0 1024.8 -0.6 71
2020-01-16 16:00:00 18.3 17 Sur 23 Sur 0 1024.8 -1.5 58
2020-01-16 15:00:00 18.7 15 Sur 24 Sur 0 1024.9 -1.8 53
2020-01-16 14:00:00 18.7 15 Sur 23 Sur 0 1025.4 -1.1 48
2020-01-16 13:00:00 17.2 10 Sudeste 16 Sudeste 0 1026.3 0.2 57
2020-01-16 12:00:00 14.5 8 Este 13 Este 0 1026.7 1.1 71
2020-01-16 11:00:00 11.8 8 Este 17 Este 0 1026.5 1.2 85
2020-01-16 10:00:00 10.1 10 Nordeste 15 Nordeste 0 1026.1 1.1 91
2020-01-16 09:00:00 9.1 6 Nordeste 12 Nordeste 0 1025.6 0.9 95
2020-01-16 08:00:00 9.5 4 Nordeste 10 Nordeste 0 1025.3 0.5 96
2020-01-16 07:00:00 9 7 Nordeste 11 Nordeste 0 1025 0.4 97
2020-01-16 06:00:00 8.9 5 Nordeste 10 Nordeste 0 1024.7 0 96
2020-01-16 05:00:00 9.6 6 Nordeste 11 Nordeste 0 1024.8 0 96
2020-01-16 04:00:00 10.2 9 Nordeste 12 Nordeste 0 1024.6 -0.3 97
2020-01-16 03:00:00 11.3 6 Nordeste 9 Nordeste 0 1024.7 -0.4 97
2020-01-16 02:00:00 11.9 5 Este 9 Este 0 1024.8 -0.3 97
2020-01-16 01:00:00 12.3 4 Este 12 Sudeste 0 1024.9 0.1 96
2020-01-16 00:00:00 12.4 5 Sudeste 10 Sudeste 0 1025.1 0.6 96
2020-01-15 23:00:00 12.7 3 Sur 10 Sudeste 0 1025.1 0.9 96
2020-01-15 22:00:00 13.6 2 Nordeste 10 Sudeste 0 1024.8 0.9 95
2020-01-15 21:00:00 14.1 3 Sur 8 Sudeste 0 1024.5 1.1 92
2020-01-15 20:00:00 15 6 Sudeste 14 Sur 0 1024.2 1 90
2020-01-15 19:00:00 16.2 11 Sur 25 Sur 0 1023.9 1.1 84
2020-01-15 18:00:00 17.5 17 Sur 28 Sudoeste 0 1023.4 0.8 78
2020-01-15 17:00:00 18.3 20 Sur 32 Sur 0 1023.2 0.3 75
2020-01-15 16:00:00 18.2 18 Sur 33 Sur 0 1022.8 -0.7 78
2020-01-15 15:00:00 18.6 23 Sur 35 Sur 0 1022.6 -1.5 75
2020-01-15 14:00:00 17.6 21 Sur 32 Sur 0 1022.9 -0.9 77
2020-01-15 13:00:00 17.2 21 Sur 32 Sur 0 1023.5 0.3 77
2020-01-15 12:00:00 15.2 7 Sudeste 15 Este 0 1024.1 1.4 78
2020-01-15 11:00:00 12.6 8 Este 19 Sudeste 0 1023.8 1.5 83
2020-01-15 10:00:00 10.2 8 Este 16 Sudeste 0 1023.2 1.4 87
2020-01-15 09:00:00 8.3 6 Este 16 Este 0 1022.7 1.3 91
2020-01-15 08:00:00 7.8 8 Nordeste 16 Nordeste 0 1022.3 0.8 90
2020-01-15 07:00:00 7.7 10 Nordeste 18 Nordeste 0 1021.8 0.3 89
2020-01-15 06:00:00 7.6 10 Nordeste 17 Nordeste 0 1021.4 -0.3 89
2020-01-15 05:00:00 8.3 9 Nordeste 13 Nordeste 0 1021.5 -0.2 88
2020-01-15 04:00:00 7.5 8 Nordeste 16 Nordeste 0 1021.5 -0.4 92
2020-01-15 03:00:00 7.3 11 Nordeste 15 Nordeste 0 1021.7 -0.4 92
2020-01-15 02:00:00 8 7 Nordeste 17 Nordeste 0 1021.7 -0.2 92
2020-01-15 01:00:00 8.6 10 Nordeste 13 Nordeste 0 1021.9 0 91
2020-01-15 00:00:00 9.4 9 Nordeste 12 Nordeste 0 1022.1 0.2 91
2020-01-14 23:00:00 10.4 2 Sur 10 Sur 0 1021.9 0 90
2020-01-14 22:00:00 10.3 7 Sur 10 Sur 0 1021.9 0.3 88
2020-01-14 21:00:00 10.9 6 Sur 10 Sur 0 1021.9 0.6 86
2020-01-14 20:00:00 12 7 Sur 12 Sur 0 1021.9 0.8 83
2020-01-14 19:00:00 13.2 10 Sur 20 Sur 0 1021.6 0.7 80
2020-01-14 18:00:00 14.2 14 Sur 22 Sur 0 1021.3 0.2 75
2020-01-14 17:00:00 15 15 Sur 23 Sudeste 0 1021.1 -0.6 69
2020-01-14 16:00:00 15.8 18 Sur 24 Sur 0 1020.9 -1.8 64
2020-01-14 15:00:00 15.3 14 Sur 24 Sur 0 1021.1 -2.3 64
2020-01-14 14:00:00 15.9 12 Sur 19 Sudeste 0 1021.7 -1.8 62
2020-01-14 13:00:00 13.2 4 Este 9 Sudeste 0 1022.7 -0.5 75
2020-01-14 12:00:00 10.4 6 Nordeste 15 Nordeste 0 1023.4 0.9 82
2020-01-14 11:00:00 6.6 6 Nordeste 14 Nordeste 0 1023.5 1.3 91
2020-01-14 10:00:00 4.5 5 Norte 12 Nordeste 0 1023.2 1.6 94
2020-01-14 09:00:00 4 5 Nordeste 10 Norte 0 1022.5 1 95
2020-01-14 08:00:00 3.3 6 Nordeste 17 Nordeste 0 1022.2 0.5 95
2020-01-14 07:00:00 3.2 9 Nordeste 15 Nordeste 0 1021.6 -0.4 96
2020-01-14 06:00:00 3.4 8 Nordeste 12 Nordeste 0 1021.5 -0.6 96
2020-01-14 05:00:00 3.5 8 Nordeste 11 Nordeste 0 1021.7 -0.7 95
2020-01-14 04:00:00 4.9 5 Nordeste 9 Norte 0 1022 -0.8 95
2020-01-14 03:00:00 5.1 6 Norte 11 Norte 0 1022.1 -1.1 96
2020-01-14 02:00:00 5.5 7 Nordeste 14 Nordeste 0 1022.4 -0.7 95
2020-01-14 01:00:00 5.7 9 Nordeste 12 Nordeste 0 1022.8 -0.2 92
2020-01-14 00:00:00 6.9 8 Nordeste 10 Nordeste 0 1023.2 0.1 93
2020-01-13 23:00:00 7.6 6 Nordeste 8 Nordeste 0 1023.1 -0.1 93
2020-01-13 22:00:00 8.4 2 Sudeste 9 Noroeste 0 1023 -0.3 84
2020-01-13 21:00:00 9.5 5 Sudoeste 8 Sur 0 1023.1 0 87
2020-01-13 20:00:00 10.3 6 Sur 9 Sur 0 1023.2 0 82
2020-01-13 19:00:00 12.3 6 Sudoeste 12 Sur 0 1023.3 0.2 74
2020-01-13 18:00:00 15.1 7 Sudoeste 13 Sudoeste 0 1023.1 -0.3 58
2020-01-13 17:00:00 15.8 10 Sudoeste 21 Sur 0 1023.2 -1.1 57
2020-01-13 16:00:00 16.6 13 Sur 19 Sur 0 1023.1 -2.2 61
2020-01-13 15:00:00 16.4 11 Sudoeste 15 Sudoeste 0 1023.4 -3.1 60
2020-01-13 14:00:00 15.8 6 Sur 13 Sudeste 0 1024.3 -2.2 59
2020-01-13 13:00:00 14 4 Este 11 Este 0 1025.3 -0.3 62
2020-01-13 12:00:00 11.6 8 Nordeste 13 Nordeste 0 1026.5 1.3 66
2020-01-13 11:00:00 7.5 8 Nordeste 12 Nordeste 0 1026.5 1.3 75
2020-01-13 10:00:00 4.6 6 Nordeste 13 Nordeste 0 1025.6 0.7 83
2020-01-13 09:00:00 2.6 9 Nordeste 13 Nordeste 0 1025.2 0.1 89
2020-01-13 08:00:00 2.6 8 Nordeste 12 Nordeste 0 1025.2 -0.1 89
2020-01-13 07:00:00 3 7 Nordeste 9 Nordeste 0 1024.9 -0.6 87
2020-01-13 06:00:00 3.8 6 Norte 10 Nordeste 0 1025.1 -0.6 85
2020-01-13 05:00:00 5.1 8 Norte 10 Norte 0 1025.3 -0.8 85
2020-01-13 04:00:00 5 6 Nordeste 11 Nordeste 0 1025.5 -1.3 84
2020-01-13 03:00:00 5 8 Nordeste 13 Nordeste 0 1025.7 -1.7 83
2020-01-13 02:00:00 5.5 7 Nordeste 12 Nordeste 0 1026.1 -1.1 80
2020-01-13 01:00:00 6 9 Nordeste 12 Nordeste 0 1026.8 -0.4 82
2020-01-13 00:00:00 7.7 5 Nordeste 8 Nordeste 0 1027.4 0.4 69
2020-01-12 23:00:00 8.2 5 Noroeste 8 Noroeste 0 1027.2 0.3 68
2020-01-12 22:00:00 9.6 5 Norte 12 Norte 0 1027.2 0.6 63
2020-01-12 21:00:00 11.2 3 Oeste 15 Oeste 0 1027 0.7 58
2020-01-12 20:00:00 13 6 Noroeste 15 Oeste 0 1026.9 0.5 52
2020-01-12 19:00:00 15 7 Noroeste 14 Noroeste 0 1026.6 0.1 45
2020-01-12 18:00:00 18.2 3 Oeste 10 Noroeste 0 1026.3 -0.6 38
2020-01-12 17:00:00 17.9 4 Nordeste 12 Norte 0 1026.4 -1.6 37
2020-01-12 16:00:00 18.1 6 Noroeste 14 Noroeste 0 1026.5 -2.7 37
2020-01-12 15:00:00 17.7 4 Este 10 Este 0 1026.9 -3.4 39
2020-01-12 14:00:00 16.6 4 Nordeste 12 Nordeste 0 1028 -2.2 44
2020-01-12 13:00:00 14.9 6 Este 15 Nordeste 0 1029.2 -0.2 50
2020-01-12 12:00:00 12.3 8 Nordeste 14 Nordeste 0 1030.3 1 61
2020-01-12 11:00:00 8.2 9 Nordeste 13 Nordeste 0 1030.2 1.1 72
2020-01-12 10:00:00 5 7 Nordeste 11 Nordeste 0 1029.4 0.5 81
2020-01-12 09:00:00 4.1 7 Nordeste 13 Norte 0 1029.3 0.8 83
2020-01-12 08:00:00 3.5 6 Norte 11 Norte 0 1029.1 0.4 87
2020-01-12 07:00:00 3.6 4 Norte 9 Nordeste 0 1028.9 0 88
2020-01-12 06:00:00 3.9 7 Nordeste 11 Norte 0 1028.5 -0.3 85
2020-01-12 05:00:00 4.1 6 Nordeste 11 Nordeste 0 1028.7 0.1 85
2020-01-12 04:00:00 5.1 6 Nordeste 12 Nordeste 0 1028.9 0 81
2020-01-12 03:00:00 4.9 3 Nordeste 10 Nordeste 0 1028.8 -0.1 81
2020-01-12 02:00:00 5.1 7 Nordeste 11 Norte 0 1028.6 -0.1 82
2020-01-12 01:00:00 6.2 8 Nordeste 9 Nordeste 0 1028.9 0.4 79
2020-01-12 00:00:00 7 5 Norte 11 Nordeste 0 1028.9 0.7 76
2020-01-11 23:00:00 7.8 5 Nordeste 8 Nordeste 0 1028.7 0.8 72
2020-01-11 22:00:00 9.7 5 Nordeste 10 Nordeste 0 1028.5 1.1 66
2020-01-11 21:00:00 10.6 4 Nordeste 8 Norte 0 1028.2 1.3 68
2020-01-11 20:00:00 12.3 3 Noroeste 8 Noroeste 0 1027.9 1.4 64
2020-01-11 19:00:00 13.8 4 Noroeste 6 Noroeste 0 1027.4 0.9 62
2020-01-11 18:00:00 16.4 3 Nordeste 8 Nordeste 0 1026.9 0 48
2020-01-11 17:00:00 17.1 5 Este 10 Este 0 1026.5 -1 43
2020-01-11 16:00:00 17 5 Nordeste 13 Este 0 1026.5 -1.8 42
2020-01-11 15:00:00 16.6 6 Nordeste 19 Este 0 1026.9 -1.8 42
2020-01-11 14:00:00 15.9 8 Este 21 Este 0 1027.5 -1 40
2020-01-11 13:00:00 14.8 14 Este 25 Este 0 1028.3 0.6 42
2020-01-11 12:00:00 13.8 11 Nordeste 19 Nordeste 0 1028.7 1.5 47
2020-01-11 11:00:00 10.7 5 Nordeste 12 Nordeste 0 1028.5 1.7 57
2020-01-11 10:00:00 8.2 8 Norte 13 Nordeste 0 1027.7 1.5 65
2020-01-11 09:00:00 5.1 5 Nordeste 9 Nordeste 0 1027.2 1 75
2020-01-11 08:00:00 5.6 5 Nordeste 18 Nordeste 0 1026.8 0.5 73
2020-01-11 07:00:00 4.8 5 Norte 8 Nordeste 0 1026.2 -0.2 77
2020-01-11 06:00:00 5.1 5 Norte 8 Norte 0 1026.2 -0.3 74
2020-01-11 05:00:00 5.6 4 Nordeste 14 Nordeste 0 1026.3 -0.1 73
2020-01-11 04:00:00 6.7 8 Norte 13 Norte 0 1026.4 -0.3 73
2020-01-11 03:00:00 7.1 6 Norte 11 Norte 0 1026.5 -0.2 77
2020-01-11 02:00:00 7.3 5 Norte 13 Norte 0 1026.4 -0.1 76
2020-01-11 01:00:00 7.9 8 Norte 20 Norte 0 1026.7 0.4 76
2020-01-11 00:00:00 8.9 11 Nordeste 16 Norte 0 1026.7 0.7 72
2020-01-10 23:00:00 8.7 4 Norte 13 Norte 0 1026.5 1.2 73
2020-01-10 22:00:00 9.1 8 Norte 23 Norte 0 1026.3 1.7 73
2020-01-10 21:00:00 10.7 10 Noroeste 22 Oeste 0 1026 2 67
2020-01-10 20:00:00 11.3 12 Noroeste 18 Noroeste 0 1025.3 1.7 66
2020-01-10 19:00:00 13 10 Noroeste 20 Noroeste 0 1024.6 0.7 58
2020-01-10 18:00:00 14.8 9 Noroeste 19 Noroeste 0 1024 0.5 54
2020-01-10 17:00:00 15.9 8 Norte 30 Oeste 0 1023.6 -1 47
2020-01-10 16:00:00 16.2 11 Noroeste 21 Norte 0 1023.9 -1.5 45
2020-01-10 15:00:00 15 10 Norte 27 Norte 0 1023.5 -2.6 48
2020-01-10 14:00:00 14.2 14 Norte 30 Norte 0 1024.6 -1.8 52
2020-01-10 13:00:00 13.7 17 Norte 35 Norte 0 1025.4 -0.6 49
2020-01-10 12:00:00 12.2 17 Norte 32 Nordeste 0 1026.1 0.4 59
2020-01-10 11:00:00 10.2 13 Norte 26 Noroeste 0 1026.4 1.1 75
2020-01-10 10:00:00 8.5 6 Noroeste 25 Noroeste 0 1026 0.8 84
2020-01-10 09:00:00 7 6 Nordeste 32 Oeste 0 1025.7 0.6 88
2020-01-10 08:00:00 7.6 11 Noroeste 28 Noroeste 0 1025.3 0 87
2020-01-10 07:00:00 8 12 Noroeste 27 Noroeste 0 1025.2 -0.1 87
2020-01-10 06:00:00 8.6 11 Noroeste 25 Noroeste 0 1025.1 -0.4 88
2020-01-10 05:00:00 9.1 10 Noroeste 18 Norte 0 1025.3 -0.2 92
2020-01-10 04:00:00 9.6 10 Oeste 29 Noroeste 0 1025.3 -0.4 90
2020-01-10 03:00:00 10.5 12 Noroeste 22 Noroeste 0 1025.5 -0.4 93
2020-01-10 02:00:00 11.6 10 Noroeste 31 Noroeste 0 1025.5 -0.4 91
2020-01-10 01:00:00 10.6 7 Noroeste 18 Oeste 0 1025.7 -0.1 96
2020-01-10 00:00:00 10.1 2 Este 18 Norte 0 1025.9 0.2 86
2020-01-09 23:00:00 12.1 12 Norte 23 Norte 0 1025.9 0.3 80
2020-01-09 22:00:00 11.3 6 Noroeste 16 Norte 0 1025.8 0.3 80
2020-01-09 21:00:00 11.3 8 Noroeste 12 Noroeste 0 1025.7 0.6 73
2020-01-09 20:00:00 12.6 6 Noroeste 10 Noroeste 0 1025.6 1 68
2020-01-09 19:00:00 13.2 11 Noroeste 18 Noroeste 0 1025.5 1.1 68
2020-01-09 18:00:00 15.8 10 Noroeste 16 Oeste 0 1025.1 0.1 63
2020-01-09 17:00:00 16.6 4 Oeste 17 Norte 0 1024.6 -1.1 63
2020-01-09 16:00:00 16 3 Nordeste 17 Norte 0 1024.4 -2 65
2020-01-09 15:00:00 14.6 9 Norte 15 Norte 0 1025 -2 70
2020-01-09 14:00:00 13.6 6 Norte 15 Noroeste 0 1025.7 -1.4 73
2020-01-09 13:00:00 12.6 5 Sur 19 Sudeste 0 1026.4 0 78
2020-01-09 12:00:00 10.5 4 Sudeste 10 Sudeste 0 1027 1.4 87
2020-01-09 11:00:00 7.6 2 Nordeste 14 Noroeste 0 1027.1 1.8 91
2020-01-09 10:00:00 5.6 10 Noroeste 15 Noroeste 0 1026.4 0.9 89
2020-01-09 09:00:00 4.3 3 Noroeste 10 Norte 0 1025.6 0.2 92
2020-01-09 08:00:00 5 5 Norte 14 Norte 0 1025.3 -0.1 90
2020-01-09 07:00:00 6.1 7 Noroeste 14 Noroeste 0 1025.5 0 93
2020-01-09 06:00:00 3.9 6 Noroeste 14 Noroeste 0 1025.4 0 96
2020-01-09 05:00:00 3.7 5 Nordeste 8 Este 0 1025.4 0 93
2020-01-09 04:00:00 4.4 3 Nordeste 8 Nordeste 0 1025.5 -0.1 88
2020-01-09 03:00:00 5.2 5 Nordeste 10 Norte 0 1025.4 -0.4 87
2020-01-09 02:00:00 8.9 8 Norte 13 Noroeste 0 1025.4 -0.3 79
2020-01-09 01:00:00 7 0 Calma 7 Noroeste 0 1025.6 0.1 87
2020-01-09 00:00:00 8.5 3 Oeste 13 Noroeste 0 1025.8 0.5 81
2020-01-08 23:00:00 8.8 4 Noroeste 7 Noroeste 0 1025.7 0.6 80
2020-01-08 22:00:00 9.8 3 Sudoeste 14 Noroeste 0 1025.5 0.5 79
2020-01-08 21:00:00 11.7 7 Oeste 12 Noroeste 0 1025.3 0.5 70
2020-01-08 20:00:00 13.3 5 Oeste 13 Noroeste 0 1025.1 0.4 70
2020-01-08 19:00:00 15.3 8 Noroeste 10 Noroeste 0 1025 0.1 59
2020-01-08 18:00:00 18.6 6 Sudoeste 8 Sudoeste 0 1024.8 -0.3 49
2020-01-08 17:00:00 19.9 3 Sur 7 Sur 0 1024.7 -1.2 41
2020-01-08 16:00:00 19 5 Nordeste 9 Norte 0 1024.9 -1.9 42
2020-01-08 15:00:00 18.5 2 Sudeste 10 Norte 0 1025.1 -2.7 45
2020-01-08 14:00:00 17 6 Norte 13 Nordeste 0 1025.9 -2.2 49
2020-01-08 13:00:00 15.3 9 Nordeste 16 Nordeste 0 1026.8 -0.6 57
2020-01-08 12:00:00 12.4 8 Norte 15 Norte 0 1027.8 1 69
2020-01-08 11:00:00 9.5 6 Norte 12 Norte 0 1028.1 1.6 77
2020-01-08 10:00:00 6.4 3 Nordeste 7 Norte 0 1027.4 1.2 91
2020-01-08 09:00:00 4.1 5 Norte 8 Norte 0 1026.8 0.3 95
2020-01-08 08:00:00 4.7 7 Norte 11 Nordeste 0 1026.5 0.1 93
2020-01-08 07:00:00 4.7 5 Norte 7 Nordeste 0 1026.2 -0.5 92
2020-01-08 06:00:00 6.1 5 Norte 9 Norte 0 1026.5 -0.3 93
2020-01-08 05:00:00 5.1 5 Norte 11 Nordeste 0 1026.4 -0.5 93
2020-01-08 04:00:00 5.5 4 Norte 10 Nordeste 0 1026.7 -0.5 92
2020-01-08 03:00:00 5.9 7 Nordeste 9 Norte 0 1026.8 -0.8 90
2020-01-08 02:00:00 7.1 3 Este 10 Norte 0 1026.9 -1 90
2020-01-08 01:00:00 7.5 2 Nordeste 9 Nordeste 0 1027.2 -0.5 84
2020-01-08 00:00:00 8.6 7 Nordeste 10 Nordeste 0 1027.6 0 83
2020-01-07 23:00:00 10 6 Nordeste 8 Nordeste 0 1027.9 0.5 78
2020-01-07 22:00:00 10.1 5 Nordeste 8 Nordeste 0 1027.7 0.7 83
2020-01-07 21:00:00 11 2 Nordeste 5 Nordeste 0 1027.6 0.7 75
2020-01-07 20:00:00 12.8 0 Calma 6 Sur 0 1027.4 0.3 66
2020-01-07 19:00:00 15.1 0 Calma 2 Sur 0 1027 -0.1 54
2020-01-07 18:00:00 17.9 2 Este 8 Este 0 1026.9 -0.4 49
2020-01-07 17:00:00 18.6 6 Nordeste 10 Nordeste 0 1027.1 -0.7 43
2020-01-07 16:00:00 18.5 6 Este 18 Este 0 1027.1 -1.8 44
2020-01-07 15:00:00 17.8 8 Este 15 Este 0 1027.3 -2 44
2020-01-07 14:00:00 16.7 5 Nordeste 20 Este 0 1027.8 -1.8 52
2020-01-07 13:00:00 15.1 8 Nordeste 16 Nordeste 0 1028.9 -0.2 58
2020-01-07 12:00:00 12.1 4 Nordeste 8 Nordeste 0 1029.3 0.5 71
2020-01-07 11:00:00 9.2 5 Nordeste 9 Nordeste 0 1029.6 0.9 81
2020-01-07 10:00:00 7.5 5 Norte 9 Norte 0 1029.1 0.7 84
2020-01-07 09:00:00 5.8 6 Norte 14 Nordeste 0 1028.8 0.6 94
2020-01-07 08:00:00 4.7 8 Norte 13 Nordeste 0 1028.7 0.5 96
2020-01-07 07:00:00 4.8 7 Nordeste 12 Norte 0 1028.4 0.5 95
2020-01-07 06:00:00 4.7 3 Nordeste 13 Norte 0 1028.2 0.5 94
2020-01-07 05:00:00 6.6 4 Norte 12 Norte 0 1028.2 0.4 92
2020-01-07 04:00:00 6.5 5 Norte 10 Norte 0 1027.9 0.1 93
2020-01-07 03:00:00 7.1 5 Nordeste 11 Nordeste 0 1027.7 -0.3 90
2020-01-07 02:00:00 7.3 7 Nordeste 11 Norte 0 1027.8 -0.2 90
2020-01-07 01:00:00 7.3 9 Norte 13 Nordeste 0 1027.8 -0.1 89
2020-01-07 00:00:00 8.2 8 Nordeste 11 Norte 0 1028 0.9 87
2020-01-06 23:00:00 8.8 6 Nordeste 8 Nordeste 0 1028 1.1 86
2020-01-06 22:00:00 10.3 5 Noroeste 15 Nordeste 0 1027.9 1.6 81
2020-01-06 21:00:00 10.5 5 Noroeste 12 Noroeste 0 1027.1 1.4 80
2020-01-06 20:00:00 12.2 8 Noroeste 12 Oeste 0 1026.9 1.4 73
2020-01-06 19:00:00 13.1 6 Oeste 10 Sudoeste 0 1026.3 1 68
2020-01-06 18:00:00 15.9 7 Sudoeste 14 Sur 0 1025.7 0.3 57
2020-01-06 17:00:00 17.3 10 Sur 17 Sur 0 1025.5 -0.8 53
2020-01-06 16:00:00 17.5 4 Nordeste 10 Este 0 1025.3 -2.2 52
2020-01-06 15:00:00 16.8 6 Nordeste 12 Este 0 1025.4 -2.9 54
2020-01-06 14:00:00 15.7 6 Este 14 Este 0 1026.3 -2 58
2020-01-06 13:00:00 13.6 8 Nordeste 17 Nordeste 0 1027.5 -0.5 69
2020-01-06 12:00:00 11.9 7 Este 12 Nordeste 0 1028.3 1.4 75
2020-01-06 11:00:00 9.1 6 Norte 14 Norte 0 1028.3 2 84
2020-01-06 10:00:00 6.6 4 Norte 12 Nordeste 0 1028 2.3 92